Kezdőlap
METAR-TAF:

METAR-TAF

Repülőterek :

William H. Morse State Airport

Bennington, Vermont, Amerikai Egyesült Államok

földrajzi szélesség: 42-53-24N, földrajzi hosszúság: 073-14-47W, magasság: 252 m

Jelenlegi meteorológiai megfigyelések

A jelentés 55 perccel ezelõtt készült, 00:54 UTC
Nyugat-délnyugati szél 8 kt
Hőmérséklet 18°C
Páratartalom 59%
Légköri nyomás 1008 hPa
Látótávolság: 16.1 km
Szakadozott felhőzet 7000 lábon
Borult 8000 lábon
enyhe esõ

METAR: KDDH 240054Z AUTO 25008KT 10SM -RA BKN070 OVC080 18/10 A2977 RMK AO2 RAB23 SLP079 P0002 T01780100 TSNO

Idő: 21:49 (01:49 UTC)


TAF: hiányzik

Meteorológiai megfigyelések és előrejelzések több, mint 4000 repülőtéren (METAR és TAF jelentéseket).

A térképen piros és sárga pontok jelzik az elérhető meteorológiai állomásokat.

Mozgassa az egeret a pont fölött, hogy megjelenjen az állomás neve.

Azután kattintson az időjárási megfigyelések és előrejelzések megtekintéséhez.

A térkép megváltoztatása: kattintson a fekete keresztel jelölt zöld gombra ráközelítéshez, a vonallal jelölt zöld gombra távolításhoz, vagy a zöld nyilakra a szomszédos térképek eléréséhez.


METAR-TAF: